Time;durP1;ratioP1;P1;durP2;ratioP2;P2;SDS_P1;SDS_P2;PMS_P1;PMS_P2;Temp;Humidity;BMP_temperature;BMP_pressure;BME280_temperature;BME280_humidity;BME280_pressure;Samples;Min_cycle;Max_cycle;Signal;HPM_P1;HPM_P2
2023/07/03 00:02:00;;;;;;;16.10;11.67;;;18.90;99.90;;;;;;5012483;28;20573;-72
2023/07/03 00:04:27;;;;;;;17.87;11.23;;;18.90;99.90;;;;;;5014864;28;20246;-72
2023/07/03 00:06:52;;;;;;;16.53;11.80;;;18.90;99.90;;;;;;5010950;28;20773;-72
2023/07/03 00:09:18;;;;;;;14.33;11.63;;;18.80;99.90;;;;;;5012532;28;20505;-71
2023/07/03 00:11:44;;;;;;;15.50;12.40;;;18.80;99.90;;;;;;5011054;28;20530;-72
2023/07/03 00:14:09;;;;;;;21.13;14.00;;;18.80;99.90;;;;;;5012439;28;20285;-71
2023/07/03 00:16:35;;;;;;;16.43;12.77;;;18.90;99.90;;;;;;5012349;28;20195;-73
2023/07/03 00:19:00;;;;;;;15.37;12.07;;;19.00;99.90;;;;;;5012160;28;20660;-72
2023/07/03 00:21:26;;;;;;;16.03;12.20;;;19.00;99.90;;;;;;5012102;28;20555;-71
2023/07/03 00:23:51;;;;;;;16.87;13.37;;;18.90;99.90;;;;;;5012531;28;20192;-72
2023/07/03 00:26:17;;;;;;;18.20;12.93;;;18.90;99.90;;;;;;5013385;28;20273;-72
2023/07/03 00:28:43;;;;;;;18.67;12.70;;;18.80;99.90;;;;;;5015098;28;20216;-72
2023/07/03 00:31:08;;;;;;;16.37;11.17;;;18.80;99.90;;;;;;5016570;28;20271;-72
2023/07/03 00:33:34;;;;;;;20.37;12.93;;;18.80;99.90;;;;;;5016032;28;20192;-72
2023/07/03 00:35:59;;;;;;;17.63;12.57;;;18.80;99.90;;;;;;5015839;28;20208;-73
2023/07/03 00:38:25;;;;;;;19.37;12.50;;;18.80;99.90;;;;;;5016137;28;20172;-72
2023/07/03 00:40:50;;;;;;;16.93;12.90;;;19.00;99.90;;;;;;5016083;28;20563;-72
2023/07/03 00:43:17;;;;;;;16.50;11.67;;;19.20;99.90;;;;;;5016038;28;20188;-71
2023/07/03 00:45:43;;;;;;;17.50;11.20;;;19.30;99.90;;;;;;5016176;28;20263;-72
2023/07/03 00:48:09;;;;;;;14.93;12.27;;;19.30;99.90;;;;;;5016054;28;20829;-71
2023/07/03 00:50:35;;;;;;;18.43;13.77;;;19.50;99.90;;;;;;5015869;28;20172;-72
2023/07/03 00:53:03;;;;;;;19.80;13.30;;;19.60;99.90;;;;;;5015969;28;20421;-72
2023/07/03 00:55:30;;;;;;;18.90;13.23;;;19.70;99.90;;;;;;5015583;28;20635;-72
2023/07/03 00:57:56;;;;;;;16.00;11.27;;;19.90;99.90;;;;;;5015597;28;20823;-72
2023/07/03 01:00:25;;;;;;;14.90;12.23;;;19.90;99.90;;;;;;5015784;28;20410;-72
2023/07/03 01:03:06;;;;;;;19.23;11.93;;;19.90;99.60;;;;;;5014774;28;20218;-71
2023/07/03 01:05:40;;;;;;;19.40;11.80;;;20.00;99.30;;;;;;5015404;28;20485;-72
2023/07/03 01:08:05;;;;;;;14.40;12.20;;;20.10;99.70;;;;;;5014206;28;20441;-72
2023/07/03 01:10:31;;;;;;;16.03;11.33;;;20.10;99.60;;;;;;5015492;28;20411;-72
2023/07/03 01:13:02;;;;;;;18.27;12.77;;;20.20;98.70;;;;;;5015646;28;20693;-71
2023/07/03 01:15:32;;;;;;;20.27;12.70;;;20.30;98.50;;;;;;5015677;28;20207;-71
2023/07/03 01:18:01;;;;;;;15.27;11.20;;;19.60;99.20;;;;;;5015440;28;20500;-72
2023/07/03 01:20:33;;;;;;;15.80;11.70;;;19.50;98.90;;;;;;5015078;28;20441;-72
2023/07/03 01:23:08;;;;;;;22.87;12.70;;;19.80;99.30;;;;;;5015653;28;20506;-72
2023/07/03 01:25:37;;;;;;;19.27;12.80;;;20.00;99.10;;;;;;5015427;28;20417;-73
2023/07/03 01:28:05;;;;;;;14.13;11.63;;;20.10;98.60;;;;;;5014835;28;20861;-72
2023/07/03 01:30:32;;;;;;;17.20;11.30;;;20.20;98.60;;;;;;5015328;28;20403;-72
2023/07/03 01:32:59;;;;;;;21.50;12.97;;;20.30;98.80;;;;;;5015086;28;21013;-72
2023/07/03 01:35:26;;;;;;;17.10;13.03;;;20.30;98.10;;;;;;5014998;28;20461;-72
2023/07/03 01:37:54;;;;;;;18.77;13.10;;;20.10;98.40;;;;;;5014236;28;20427;-71
2023/07/03 01:40:23;;;;;;;14.93;11.10;;;20.10;99.10;;;;;;5014923;28;20411;-71
2023/07/03 01:42:50;;;;;;;19.03;13.43;;;20.10;98.80;;;;;;5014702;28;20906;-72
2023/07/03 01:45:16;;;;;;;18.10;11.77;;;20.10;98.60;;;;;;5014673;28;20465;-71
2023/07/03 01:47:41;;;;;;;17.47;12.67;;;20.20;98.70;;;;;;5014167;28;20510;-71
2023/07/03 01:50:16;;;;;;;15.87;11.90;;;20.20;98.40;;;;;;5014537;28;20717;-72
2023/07/03 01:52:54;;;;;;;15.67;11.83;;;20.30;98.60;;;;;;5014938;28;20148;-72
2023/07/03 01:55:41;;;;;;;17.37;12.27;;;20.40;98.80;;;;;;5014668;28;20379;-72
2023/07/03 01:58:14;;;;;;;18.77;12.40;;;20.50;98.50;;;;;;5014383;28;20429;-72
2023/07/03 02:01:03;;;;;;;16.97;11.00;;;20.40;98.10;;;;;;5014523;28;20395;-72
2023/07/03 02:03:49;;;;;;;19.50;12.10;;;20.50;97.90;;;;;;5030246;28;20512;-71
2023/07/03 02:06:38;;;;;;;18.97;13.03;;;20.40;97.60;;;;;;5033964;28;20429;-72
2023/07/03 02:09:07;;;;;;;16.07;11.63;;;20.20;98.10;;;;;;5034020;28;20775;-71
2023/07/03 02:11:33;;;;;;;19.10;12.97;;;20.40;97.70;;;;;;5033121;28;20776;-72
2023/07/03 02:13:59;;;;;;;17.10;13.57;;;20.40;97.60;;;;;;5033989;28;20508;-72
2023/07/03 02:16:25;;;;;;;18.57;12.37;;;20.20;97.60;;;;;;5034244;28;20568;-72
2023/07/03 02:18:51;;;;;;;19.03;13.00;;;20.10;97.60;;;;;;5033974;28;20489;-72
2023/07/03 02:21:16;;;;;;;18.30;12.43;;;20.10;97.80;;;;;;5034319;28;20178;-73
2023/07/03 02:23:44;;;;;;;15.67;11.33;;;20.20;97.80;;;;;;5034071;28;20441;-72
2023/07/03 02:26:10;;;;;;;19.80;12.30;;;20.20;98.00;;;;;;5034031;28;20183;-71
2023/07/03 02:28:36;;;;;;;14.30;11.67;;;20.40;97.90;;;;;;5033983;28;20432;-71
2023/07/03 02:31:02;;;;;;;17.93;12.27;;;20.50;97.60;;;;;;5034217;28;20178;-71
2023/07/03 02:33:28;;;;;;;15.17;12.03;;;20.40;97.20;;;;;;5017301;28;20996;-71
2023/07/03 02:35:54;;;;;;;15.30;11.43;;;20.50;97.80;;;;;;5013729;28;20494;-71
2023/07/03 02:38:20;;;;;;;19.13;11.80;;;20.40;97.50;;;;;;5014165;28;20761;-72
2023/07/03 02:40:46;;;;;;;14.10;11.13;;;20.50;97.50;;;;;;5014050;28;20623;-71
2023/07/03 02:43:12;;;;;;;15.80;10.60;;;20.60;97.50;;;;;;5013964;28;20270;-73
2023/07/03 02:45:40;;;;;;;16.87;11.87;;;20.60;97.40;;;;;;5013636;28;20411;-73
2023/07/03 02:48:07;;;;;;;17.37;12.17;;;20.60;97.80;;;;;;5013315;28;20419;-73
2023/07/03 02:50:33;;;;;;;17.63;11.37;;;20.70;97.60;;;;;;5012408;28;20860;-72
2023/07/03 02:52:58;;;;;;;17.27;11.40;;;20.70;97.30;;;;;;5013616;28;20502;-71
2023/07/03 02:55:24;;;;;;;19.80;12.70;;;20.70;97.60;;;;;;5013518;28;20894;-72
2023/07/03 02:57:50;;;;;;;17.23;12.30;;;20.60;98.00;;;;;;5013261;28;20212;-71
2023/07/03 03:00:17;;;;;;;15.23;11.03;;;20.50;98.10;;;;;;5013406;28;20167;-72
2023/07/03 03:02:44;;;;;;;16.13;10.87;;;20.60;98.00;;;;;;5012544;28;20510;-72
2023/07/03 03:05:10;;;;;;;14.37;11.00;;;20.60;97.90;;;;;;5011953;28;20454;-73
2023/07/03 03:07:36;;;;;;;14.10;11.40;;;20.70;97.20;;;;;;5013055;28;20435;-72
2023/07/03 03:10:02;;;;;;;14.57;12.00;;;20.60;97.40;;;;;;5013790;28;20419;-73
2023/07/03 03:12:28;;;;;;;15.57;10.93;;;20.60;97.40;;;;;;5013225;28;20409;-73
2023/07/03 03:14:53;;;;;;;19.23;11.87;;;20.70;97.80;;;;;;5013151;28;20419;-72
2023/07/03 03:17:19;;;;;;;20.93;13.17;;;20.80;97.90;;;;;;5013178;28;20661;-72
2023/07/03 03:19:45;;;;;;;17.17;10.67;;;20.80;98.00;;;;;;5013339;28;20176;-72
2023/07/03 03:22:11;;;;;;;16.10;12.00;;;20.80;97.60;;;;;;5012980;28;20180;-73
2023/07/03 03:24:36;;;;;;;16.93;11.70;;;20.70;97.50;;;;;;5013027;28;20469;-73
2023/07/03 03:27:06;;;;;;;14.40;10.40;;;20.70;97.90;;;;;;5011620;28;20207;-72
2023/07/03 03:29:32;;;;;;;15.43;10.63;;;20.80;97.90;;;;;;5013260;28;20615;-72
2023/07/03 03:31:58;;;;;;;16.67;12.07;;;20.70;97.40;;;;;;5012954;28;20484;-73
2023/07/03 03:34:23;;;;;;;14.43;11.10;;;20.70;96.90;;;;;;5012672;28;20886;-73
2023/07/03 03:36:49;;;;;;;15.53;11.00;;;20.80;97.10;;;;;;5012223;28;20746;-72
2023/07/03 03:39:15;;;;;;;14.50;11.47;;;20.90;97.30;;;;;;5013062;28;20580;-72
2023/07/03 03:41:40;;;;;;;16.17;12.20;;;21.00;97.10;;;;;;5012783;28;20175;-73
2023/07/03 03:44:06;;;;;;;14.23;10.87;;;21.00;97.00;;;;;;5012655;28;20453;-73
2023/07/03 03:46:32;;;;;;;18.50;12.07;;;20.90;97.00;;;;;;5012638;28;20203;-72
2023/07/03 03:48:57;;;;;;;17.00;11.80;;;20.90;96.90;;;;;;5012438;28;20176;-72
2023/07/03 03:51:23;;;;;;;15.67;11.63;;;20.90;97.40;;;;;;5011999;28;20339;-73
2023/07/03 03:53:49;;;;;;;19.63;12.03;;;20.80;97.10;;;;;;5015251;28;20175;-73
2023/07/03 03:56:14;;;;;;;14.67;11.20;;;20.80;97.30;;;;;;5012458;28;20219;-72
2023/07/03 03:58:40;;;;;;;17.37;12.67;;;20.70;97.40;;;;;;5012829;28;20160;-72
2023/07/03 04:01:05;;;;;;;19.33;11.53;;;20.70;97.30;;;;;;5012287;28;20176;-72
2023/07/03 04:03:31;;;;;;;16.50;11.90;;;20.60;97.50;;;;;;5012283;28;20203;-72
2023/07/03 04:05:57;;;;;;;14.50;10.70;;;20.50;97.80;;;;;;5012526;28;20547;-72
2023/07/03 04:08:22;;;;;;;15.63;11.17;;;20.40;98.00;;;;;;5011182;28;20176;-72
2023/07/03 04:10:48;;;;;;;18.43;11.80;;;20.50;97.90;;;;;;5012603;28;20506;-73
2023/07/03 04:13:14;;;;;;;15.37;11.57;;;20.50;98.20;;;;;;5012348;28;20222;-72
2023/07/03 04:15:56;;;;;;;13.97;10.40;;;20.50;97.70;;;;;;5012895;28;20302;-73
2023/07/03 04:18:23;;;;;;;19.63;13.03;;;20.50;97.70;;;;;;5012524;28;20615;-73
2023/07/03 04:20:48;;;;;;;17.80;11.50;;;20.40;97.80;;;;;;5012664;28;20914;-72
2023/07/03 04:23:15;;;;;;;15.60;11.00;;;20.30;98.10;;;;;;5012584;28;20456;-72
2023/07/03 04:25:42;;;;;;;19.27;11.33;;;20.30;98.30;;;;;;5012326;28;20171;-72
2023/07/03 04:28:11;;;;;;;12.20;10.90;;;20.20;98.60;;;;;;5012352;28;20445;-73
2023/07/03 04:30:37;;;;;;;14.13;11.50;;;20.30;98.30;;;;;;5012142;28;20418;-71
2023/07/03 04:33:03;;;;;;;20.20;13.13;;;20.30;98.30;;;;;;5011910;28;20415;-71
2023/07/03 04:35:28;;;;;;;16.10;11.47;;;20.30;98.70;;;;;;5012189;28;20399;-72
2023/07/03 04:37:54;;;;;;;16.73;11.80;;;20.30;98.50;;;;;;5010588;28;20559;-72
2023/07/03 04:40:20;;;;;;;14.30;11.00;;;20.20;98.10;;;;;;5012432;28;20168;-72
2023/07/03 04:42:45;;;;;;;14.57;10.90;;;20.40;98.60;;;;;;5012431;28;20175;-72
2023/07/03 04:45:13;;;;;;;15.27;10.50;;;20.40;98.10;;;;;;5012144;28;20188;-72
2023/07/03 04:47:39;;;;;;;19.13;11.50;;;20.40;98.50;;;;;;5011831;28;20654;-71
2023/07/03 04:50:07;;;;;;;14.77;10.47;;;20.50;98.20;;;;;;5012375;28;20411;-73
2023/07/03 04:52:36;;;;;;;16.80;11.77;;;20.50;98.10;;;;;;5010476;28;20172;-73
2023/07/03 04:55:02;;;;;;;14.10;11.10;;;20.50;97.80;;;;;;5011575;28;20975;-71
2023/07/03 04:57:28;;;;;;;17.73;11.67;;;20.40;98.80;;;;;;5010717;28;20829;-72
2023/07/03 04:59:55;;;;;;;14.10;11.63;;;20.40;98.60;;;;;;5012342;28;20418;-74
2023/07/03 05:02:21;;;;;;;13.20;10.37;;;20.50;98.30;;;;;;5011970;28;20417;-72
2023/07/03 05:04:47;;;;;;;14.97;9.60;;;20.50;97.90;;;;;;5012217;28;20756;-73
2023/07/03 05:07:13;;;;;;;16.67;11.50;;;20.50;97.90;;;;;;5012008;28;20911;-73
2023/07/03 05:09:39;;;;;;;14.13;10.67;;;20.50;98.10;;;;;;5012181;28;20438;-74
2023/07/03 05:12:05;;;;;;;15.43;11.20;;;20.60;98.20;;;;;;5012049;28;20219;-73
2023/07/03 05:14:31;;;;;;;14.10;9.90;;;20.80;98.20;;;;;;5014911;28;20922;-72
2023/07/03 05:16:57;;;;;;;16.43;10.33;;;20.90;97.70;;;;;;5015800;28;20472;-72
2023/07/03 05:19:22;;;;;;;12.77;9.80;;;20.90;97.70;;;;;;5015176;28;20182;-73
2023/07/03 05:21:48;;;;;;;14.57;10.33;;;20.90;97.60;;;;;;5014859;28;20263;-73
2023/07/03 05:24:13;;;;;;;17.70;11.73;;;20.90;97.50;;;;;;5015158;28;20232;-73
2023/07/03 05:26:39;;;;;;;16.70;11.10;;;20.70;98.20;;;;;;5014991;28;20246;-72
2023/07/03 05:29:05;;;;;;;18.80;12.00;;;20.90;98.10;;;;;;5015047;28;20243;-73
2023/07/03 05:31:31;;;;;;;19.37;11.10;;;20.90;98.20;;;;;;5015105;28;20497;-72
2023/07/03 05:33:56;;;;;;;15.70;10.90;;;21.10;98.30;;;;;;5014805;28;20568;-72
2023/07/03 05:36:22;;;;;;;11.00;9.77;;;21.00;98.60;;;;;;5014902;28;20271;-71
2023/07/03 05:38:48;;;;;;;14.30;10.37;;;21.00;97.70;;;;;;5015298;28;20168;-72
2023/07/03 05:41:14;;;;;;;18.90;10.70;;;21.10;97.70;;;;;;5014779;28;20278;-72
2023/07/03 05:43:40;;;;;;;16.67;11.00;;;21.30;97.50;;;;;;5014750;28;20196;-72
2023/07/03 05:46:06;;;;;;;15.00;11.50;;;21.10;98.00;;;;;;5014861;28;20933;-73
2023/07/03 05:48:31;;;;;;;13.93;10.50;;;21.20;98.00;;;;;;5014495;28;20589;-74
2023/07/03 05:50:57;;;;;;;13.30;10.77;;;21.40;98.20;;;;;;5014510;28;20175;-72
2023/07/03 05:53:22;;;;;;;14.57;11.17;;;21.40;98.30;;;;;;5014657;28;20226;-72
2023/07/03 05:55:55;;;;;;;16.00;11.37;;;21.40;98.10;;;;;;5014433;28;20172;-73
2023/07/03 05:58:22;;;;;;;12.80;9.63;;;21.50;97.60;;;;;;5029061;23;20230;-70
2023/07/03 06:00:48;;;;;;;13.23;10.33;;;21.60;97.40;;;;;;5013632;28;20402;-70
2023/07/03 06:03:14;;;;;;;13.30;10.37;;;21.60;97.20;;;;;;5013869;28;20418;-71
2023/07/03 06:05:41;;;;;;;14.80;9.40;;;21.50;97.30;;;;;;5015348;28;20446;-70
2023/07/03 06:08:06;;;;;;;12.23;10.03;;;21.70;97.90;;;;;;5013414;28;20192;-70
2023/07/03 06:10:32;;;;;;;16.83;10.10;;;21.80;97.80;;;;;;5015019;28;20834;-71
2023/07/03 06:12:57;;;;;;;15.70;10.10;;;21.90;97.40;;;;;;5015089;28;20631;-70
2023/07/03 06:15:23;;;;;;;14.60;10.27;;;21.80;97.10;;;;;;5015028;28;20164;-70
2023/07/03 06:17:49;;;;;;;14.63;11.13;;;21.80;96.90;;;;;;5014551;28;20713;-71
2023/07/03 06:20:15;;;;;;;14.47;10.30;;;21.90;97.20;;;;;;5013477;28;20179;-72
2023/07/03 06:22:42;;;;;;;15.10;10.30;;;21.90;97.20;;;;;;5014394;28;20168;-71
2023/07/03 06:25:08;;;;;;;13.00;9.27;;;21.80;97.80;;;;;;5014210;28;20204;-71
2023/07/03 06:27:33;;;;;;;11.57;9.00;;;21.70;97.80;;;;;;5014368;28;20419;-71
2023/07/03 06:29:59;;;;;;;14.47;10.13;;;21.80;97.00;;;;;;5014567;28;20414;-70
2023/07/03 06:32:24;;;;;;;12.73;8.90;;;22.00;97.00;;;;;;5014094;28;20270;-70
2023/07/03 06:34:50;;;;;;;13.70;8.80;;;22.00;96.70;;;;;;5014534;28;20187;-71
2023/07/03 06:37:15;;;;;;;13.90;9.30;;;22.10;97.60;;;;;;5014464;28;20669;-71
2023/07/03 06:39:41;;;;;;;13.70;8.90;;;22.10;96.80;;;;;;5014993;28;20164;-71
2023/07/03 06:42:09;;;;;;;13.83;9.33;;;22.30;96.50;;;;;;5015177;28;20608;-70
2023/07/03 06:44:35;;;;;;;15.80;9.87;;;22.40;96.40;;;;;;5014424;28;20212;-71
2023/07/03 06:47:01;;;;;;;14.57;9.10;;;22.50;96.40;;;;;;5013791;28;20929;-70
2023/07/03 06:49:29;;;;;;;12.73;9.00;;;22.40;96.20;;;;;;5012648;28;20251;-70
2023/07/03 06:51:56;;;;;;;12.63;8.90;;;22.70;96.30;;;;;;5013656;28;20416;-69
2023/07/03 06:54:23;;;;;;;13.47;8.83;;;22.80;96.00;;;;;;5014234;28;20413;-68
2023/07/03 06:56:48;;;;;;;11.83;8.63;;;22.90;96.00;;;;;;4999007;28;20531;-69
2023/07/03 06:59:14;;;;;;;13.80;8.90;;;22.20;95.60;;;;;;4975068;28;20491;-70
2023/07/03 07:01:40;;;;;;;12.20;9.87;;;22.20;96.10;;;;;;4974731;28;20169;-70
2023/07/03 07:04:06;;;;;;;13.60;9.10;;;22.40;96.30;;;;;;5010368;28;20192;-71
2023/07/03 07:06:32;;;;;;;13.67;8.73;;;22.20;95.50;;;;;;5013544;28;20408;-71
2023/07/03 07:08:58;;;;;;;12.20;8.57;;;22.00;96.30;;;;;;5014123;28;20176;-70
2023/07/03 07:11:27;;;;;;;11.30;9.50;;;22.30;96.00;;;;;;4989780;28;20537;-71
2023/07/03 07:13:54;;;;;;;13.73;10.13;;;22.20;95.60;;;;;;4984936;28;20817;-70
2023/07/03 07:16:24;;;;;;;14.80;9.53;;;22.10;95.70;;;;;;4982334;28;20416;-71
2023/07/03 07:18:52;;;;;;;14.27;8.37;;;22.20;95.30;;;;;;4982789;28;20908;-71
2023/07/03 07:21:18;;;;;;;14.57;9.87;;;22.20;95.30;;;;;;4991278;28;20786;-71
2023/07/03 07:23:56;;;;;;;15.57;9.17;;;22.20;95.50;;;;;;5009282;28;20451;-70
2023/07/03 07:26:24;;;;;;;14.20;8.63;;;22.30;96.00;;;;;;4994532;28;20751;-71
2023/07/03 07:28:49;;;;;;;12.80;9.27;;;22.30;95.20;;;;;;4994474;28;20427;-70
2023/07/03 07:31:24;;;;;;;17.60;10.30;;;22.40;95.50;;;;;;4990967;28;20401;-69
2023/07/03 07:33:50;;;;;;;14.00;9.90;;;22.50;95.20;;;;;;4983662;28;20306;-71
2023/07/03 07:36:18;;;;;;;12.03;9.13;;;22.60;94.70;;;;;;4983897;28;20471;-71
2023/07/03 07:38:44;;;;;;;14.30;8.87;;;22.30;95.60;;;;;;4983952;28;20409;-70
2023/07/03 07:41:11;;;;;;;12.50;9.43;;;21.90;95.90;;;;;;4983182;28;20404;-69
2023/07/03 07:43:37;;;;;;;12.10;9.50;;;21.90;96.30;;;;;;4974245;28;20193;-72
2023/07/03 07:46:03;;;;;;;15.20;10.80;;;21.90;96.40;;;;;;4973234;28;20421;-71
2023/07/03 07:48:28;;;;;;;15.40;10.23;;;22.00;96.70;;;;;;4974452;28;20185;-70
2023/07/03 07:50:54;;;;;;;11.57;9.17;;;21.90;96.20;;;;;;4981515;28;20495;-71
2023/07/03 07:53:20;;;;;;;13.17;10.17;;;21.70;96.50;;;;;;5010048;28;20227;-70
2023/07/03 07:55:45;;;;;;;13.03;9.30;;;21.30;97.10;;;;;;4994375;28;20244;-69
2023/07/03 07:58:11;;;;;;;16.03;9.63;;;21.30;97.30;;;;;;4993600;28;20679;-71
2023/07/03 08:00:40;;;;;;;14.33;9.60;;;21.30;97.60;;;;;;4994049;28;20195;-71
2023/07/03 08:03:06;;;;;;;17.77;10.40;;;21.10;97.70;;;;;;4993814;28;20918;-71
2023/07/03 08:05:32;;;;;;;15.70;9.40;;;21.20;97.80;;;;;;4993594;28;20467;-71
2023/07/03 08:07:58;;;;;;;15.67;9.60;;;21.40;97.60;;;;;;4993376;28;20462;-71
2023/07/03 08:10:23;;;;;;;14.30;9.73;;;21.80;97.30;;;;;;4993438;28;20179;-71
2023/07/03 08:12:52;;;;;;;15.80;9.50;;;22.00;97.10;;;;;;4993593;28;20880;-71
2023/07/03 08:15:17;;;;;;;12.63;8.80;;;22.20;96.40;;;;;;4993498;28;20156;-71
2023/07/03 08:17:43;;;;;;;20.07;10.10;;;22.10;96.40;;;;;;4993224;28;20431;-71
2023/07/03 08:20:11;;;;;;;12.37;9.43;;;22.20;96.10;;;;;;4993520;28;20169;-73
2023/07/03 08:22:38;;;;;;;14.80;9.50;;;22.20;96.10;;;;;;4988942;28;20177;-70
2023/07/03 08:25:04;;;;;;;14.43;9.23;;;22.00;96.30;;;;;;4983425;28;20444;-70
2023/07/03 08:27:30;;;;;;;15.00;9.50;;;22.10;96.30;;;;;;4981944;28;20436;-72
2023/07/03 08:29:56;;;;;;;15.23;9.67;;;22.50;95.90;;;;;;5001615;28;20409;-72
2023/07/03 08:32:22;;;;;;;15.10;10.17;;;22.60;95.30;;;;;;4985284;28;20247;-69
2023/07/03 08:34:48;;;;;;;15.90;10.43;;;22.40;96.50;;;;;;4982926;28;20408;-71
2023/07/03 08:37:13;;;;;;;17.40;11.30;;;22.30;97.20;;;;;;4983846;28;20189;-71
2023/07/03 08:39:39;;;;;;;17.83;10.33;;;21.80;97.40;;;;;;4982215;28;20166;-70
2023/07/03 08:42:40;;;;;;;15.90;10.07;;;21.60;98.30;;;;;;4982956;28;20176;-71
2023/07/03 08:45:09;;;;;;;12.30;9.23;;;21.80;98.40;;;;;;4985060;28;20487;-71
2023/07/03 08:47:36;;;;;;;15.40;10.23;;;21.90;98.30;;;;;;4993735;28;20506;-71
2023/07/03 08:50:03;;;;;;;16.70;11.37;;;22.10;98.20;;;;;;4997988;28;20881;-70
2023/07/03 08:52:41;;;;;;;16.47;10.30;;;22.00;98.60;;;;;;4996646;28;20407;-70
2023/07/03 08:55:11;;;;;;;18.33;10.27;;;21.90;98.60;;;;;;4996855;28;20419;-71
2023/07/03 08:57:38;;;;;;;16.47;10.37;;;21.90;98.70;;;;;;4996853;28;20498;-71
2023/07/03 09:00:11;;;;;;;14.67;10.27;;;22.10;98.40;;;;;;4996939;28;21045;-72
2023/07/03 09:02:44;;;;;;;19.90;9.83;;;22.20;98.40;;;;;;5001716;28;20418;-70
2023/07/03 09:05:45;;;;;;;14.57;9.10;;;22.40;98.50;;;;;;5016891;28;20434;-70
2023/07/03 09:08:20;;;;;;;18.93;9.93;;;22.30;98.10;;;;;;5016181;28;20445;-71
2023/07/03 09:10:49;;;;;;;15.67;9.37;;;22.20;97.90;;;;;;5016290;28;20470;-71
2023/07/03 09:13:21;;;;;;;16.10;9.10;;;22.00;98.40;;;;;;5016547;28;20760;-72
2023/07/03 09:16:01;;;;;;;12.97;9.40;;;22.20;98.20;;;;;;5016565;28;20375;-71
2023/07/03 09:18:31;;;;;;;17.13;10.97;;;22.40;97.90;;;;;;5009024;28;20435;-70
2023/07/03 09:20:59;;;;;;;14.37;9.97;;;22.40;97.40;;;;;;4987356;28;20400;-72
2023/07/03 09:23:36;;;;;;;17.73;9.77;;;22.40;97.40;;;;;;4985644;28;20935;-69
2023/07/03 09:26:07;;;;;;;13.93;8.87;;;22.80;97.20;;;;;;4986240;28;20503;-71
2023/07/03 09:28:38;;;;;;;14.00;8.33;;;23.00;96.80;;;;;;4985027;28;20452;-71
2023/07/03 09:31:03;;;;;;;16.47;9.90;;;23.00;96.50;;;;;;4986289;28;20499;-71
2023/07/03 09:33:29;;;;;;;16.67;10.00;;;22.70;96.60;;;;;;4990773;28;20408;-70
2023/07/03 09:35:55;;;;;;;11.67;8.57;;;23.00;96.30;;;;;;4996013;28;20169;-70
2023/07/03 09:38:23;;;;;;;14.40;9.33;;;23.30;95.80;;;;;;4995653;28;20247;-68
2023/07/03 09:40:51;;;;;;;15.30;8.60;;;23.40;95.50;;;;;;4995998;28;20755;-70
2023/07/03 09:43:26;;;;;;;13.23;9.00;;;23.00;95.70;;;;;;4991437;28;20507;-71
2023/07/03 09:46:08;;;;;;;11.33;8.80;;;23.10;95.20;;;;;;4995602;28;20404;-71
2023/07/03 09:48:35;;;;;;;11.73;8.10;;;23.30;94.80;;;;;;4995868;28;20434;-71
2023/07/03 09:51:20;;;;;;;11.30;7.60;;;23.60;94.70;;;;;;4986080;28;20412;-71
2023/07/03 09:53:46;;;;;;;11.13;8.00;;;23.60;93.60;;;;;;4985559;28;20495;-71
2023/07/03 09:56:16;;;;;;;9.57;6.90;;;23.30;93.50;;;;;;4988358;28;20416;-71
2023/07/03 09:58:47;;;;;;;12.87;8.47;;;23.40;93.40;;;;;;4984612;28;20428;-71
2023/07/03 10:01:33;;;;;;;11.27;7.70;;;23.50;93.20;;;;;;4992411;28;20503;-71
2023/07/03 10:04:16;;;;;;;11.70;8.00;;;23.50;93.00;;;;;;5010415;28;20451;-71
2023/07/03 10:07:04;;;;;;;10.97;6.90;;;23.80;93.30;;;;;;5015318;28;20426;-71
2023/07/03 10:09:39;;;;;;;10.60;8.20;;;23.70;91.70;;;;;;5013589;28;20407;-71
2023/07/03 10:12:13;;;;;;;10.07;6.47;;;23.50;91.80;;;;;;5011477;28;20776;-71
2023/07/03 10:14:57;;;;;;;9.83;6.93;;;23.50;91.60;;;;;;4993945;28;20411;-71
2023/07/03 10:17:34;;;;;;;11.53;7.33;;;23.60;92.20;;;;;;4995629;28;20431;-71
2023/07/03 10:20:09;;;;;;;13.00;7.37;;;24.00;91.80;;;;;;4995785;28;20388;-71
2023/07/03 10:22:37;;;;;;;9.60;7.17;;;24.30;90.60;;;;;;4994847;28;20396;-71
2023/07/03 10:25:06;;;;;;;9.30;6.90;;;24.50;90.10;;;;;;4995519;28;20977;-71
2023/07/03 10:27:34;;;;;;;10.03;6.57;;;24.50;90.00;;;;;;4995220;28;20854;-71
2023/07/03 10:30:04;;;;;;;13.43;7.60;;;24.60;87.40;;;;;;4995028;28;20396;-71
2023/07/03 10:32:32;;;;;;;14.03;7.77;;;24.50;88.00;;;;;;4999254;28;20494;-71
2023/07/03 10:35:03;;;;;;;10.23;6.43;;;24.20;87.80;;;;;;5014711;28;20411;-70
2023/07/03 10:37:37;;;;;;;9.30;6.63;;;24.00;88.70;;;;;;5014203;28;20921;-71
2023/07/03 10:40:18;;;;;;;11.83;6.23;;;24.00;88.20;;;;;;5014365;28;20410;-70
2023/07/03 10:42:59;;;;;;;10.17;6.07;;;24.30;89.70;;;;;;5015137;28;20394;-72
2023/07/03 10:45:29;;;;;;;9.90;6.10;;;24.70;85.30;;;;;;5015220;28;20537;-71
2023/07/03 10:48:02;;;;;;;7.27;5.10;;;24.70;85.60;;;;;;5014220;28;20789;-70
2023/07/03 10:50:53;;;;;;;9.77;5.20;;;24.80;85.60;;;;;;5014540;28;20393;-71
2023/07/03 10:53:31;;;;;;;10.53;5.40;;;24.80;84.80;;;;;;4986777;28;20431;-71
2023/07/03 10:56:15;;;;;;;9.80;5.60;;;24.80;84.50;;;;;;4984300;28;20412;-71
2023/07/03 10:58:53;;;;;;;9.70;5.43;;;25.20;81.60;;;;;;4984614;28;20428;-71
2023/07/03 11:01:25;;;;;;;8.37;4.77;;;25.90;81.50;;;;;;4992841;28;20494;-71
2023/07/03 11:04:10;;;;;;;7.17;4.13;;;25.90;78.80;;;;;;4998095;28;20456;-71
2023/07/03 11:07:18;;;;;;;8.00;4.37;;;25.40;79.40;;;;;;4985663;28;20543;-71
2023/07/03 11:09:57;;;;;;;6.07;4.20;;;25.10;81.20;;;;;;4983979;28;20404;-71
2023/07/03 11:12:35;;;;;;;6.00;4.40;;;24.80;82.30;;;;;;4983285;28;20532;-72
2023/07/03 11:15:20;;;;;;;5.20;4.37;;;24.50;82.10;;;;;;4989299;28;20430;-69
2023/07/03 11:18:04;;;;;;;7.47;4.17;;;24.60;82.50;;;;;;4993614;28;20782;-71
2023/07/03 11:20:36;;;;;;;5.53;4.50;;;25.00;82.00;;;;;;4990248;28;20403;-71
2023/07/03 11:23:11;;;;;;;6.30;4.30;;;25.30;81.20;;;;;;4984538;28;20937;-71
2023/07/03 11:25:57;;;;;;;7.03;4.67;;;25.40;79.40;;;;;;4983987;28;20440;-70
2023/07/03 11:28:33;;;;;;;9.93;4.37;;;24.90;81.20;;;;;;4984711;28;20503;-71
2023/07/03 11:31:00;;;;;;;8.03;4.40;;;24.60;82.40;;;;;;4982603;28;20400;-71
2023/07/03 11:33:29;;;;;;;7.50;4.90;;;24.60;82.20;;;;;;4995545;28;20422;-69
2023/07/03 11:35:56;;;;;;;8.10;4.23;;;24.50;81.80;;;;;;5013239;28;20562;-69
2023/07/03 11:38:24;;;;;;;9.63;5.43;;;24.80;82.10;;;;;;5013025;28;20794;-70
2023/07/03 11:40:55;;;;;;;7.87;5.20;;;24.60;82.60;;;;;;5013683;28;20411;-71
2023/07/03 11:43:32;;;;;;;7.03;4.47;;;24.60;82.80;;;;;;5013642;28;20434;-70
2023/07/03 11:45:57;;;;;;;7.40;4.40;;;24.20;81.60;;;;;;5013484;28;20375;-69
2023/07/03 11:48:33;;;;;;;5.90;4.17;;;24.30;82.60;;;;;;5011660;28;20953;-69
2023/07/03 11:51:02;;;;;;;9.30;6.10;;;24.30;81.50;;;;;;5012081;28;20172;-71
2023/07/03 11:53:43;;;;;;;6.50;4.93;;;24.50;82.30;;;;;;4993864;28;20418;-70
2023/07/03 11:56:14;;;;;;;9.93;5.27;;;25.40;81.00;;;;;;4983706;28;20428;-69
2023/07/03 11:58:39;;;;;;;8.40;6.10;;;27.30;76.70;;;;;;4998978;22;20886;-71
2023/07/03 12:01:20;;;;;;;11.63;5.80;;;27.90;76.10;;;;;;4984713;28;20406;-72
2023/07/03 12:03:51;;;;;;;11.03;6.40;;;27.00;77.70;;;;;;4982835;28;20207;-73
2023/07/03 12:06:38;;;;;;;9.53;5.90;;;27.30;80.50;;;;;;4981562;28;20400;-72
2023/07/03 12:09:24;;;;;;;10.33;5.47;;;28.40;78.80;;;;;;4962531;28;20390;-72
2023/07/03 12:11:59;;;;;;;10.97;5.97;;;29.00;75.40;;;;;;4969638;28;20396;-72
2023/07/03 12:14:40;;;;;;;9.27;6.23;;;28.40;77.10;;;;;;4973916;28;20759;-71
2023/07/03 12:17:21;;;;;;;9.00;6.27;;;28.40;76.10;;;;;;4973323;28;20447;-72
2023/07/03 12:19:48;;;;;;;9.97;6.30;;;28.10;77.40;;;;;;4973559;28;20527;-72
2023/07/03 12:22:27;;;;;;;10.67;6.10;;;27.90;76.70;;;;;;4974581;28;20420;-73
2023/07/03 12:25:05;;;;;;;10.57;5.97;;;27.70;78.10;;;;;;4977465;28;20530;-72
2023/07/03 12:27:31;;;;;;;8.97;6.37;;;28.10;77.40;;;;;;4971835;28;20433;-72
2023/07/03 12:29:56;;;;;;;8.63;5.97;;;28.20;76.90;;;;;;4956602;29;20422;-72
2023/07/03 12:32:31;;;;;;;12.03;5.67;;;28.70;76.70;;;;;;4958792;28;20181;-73
2023/07/03 12:35:11;;;;;;;7.80;5.40;;;29.30;73.10;;;;;;4965497;28;20200;-72
2023/07/03 12:38:02;;;;;;;8.70;5.73;;;29.50;70.10;;;;;;4967602;28;20440;-72
2023/07/03 12:40:27;;;;;;;8.47;5.53;;;29.10;70.60;;;;;;4957008;28;20499;-73
2023/07/03 12:42:58;;;;;;;6.03;4.63;;;27.80;74.30;;;;;;4965336;28;20501;-72
2023/07/03 12:45:26;;;;;;;5.90;4.57;;;28.50;73.70;;;;;;4958378;28;20704;-72